Terminal Aerodrome Forecast
Issued by NWS Chicago, IL

Home | Current Version | Previous Version | Text Only | Print | Product List | Glossary Off
Versions: 1 2 3 4 5 6 7 8 9 10 11 12 13 14 15 16 17 18 19 20 21 22 23 24 25 26

000
FTUS43 KLOT 150258 AAB
TAFRFD
TAF AMD
KRFD 150258Z 1503/1524 17012KT P6SM VCSH SCT050 BKN090
     FM150500 22013G20KT P6SM VCTS SCT050CB BKN100
      TEMPO 1505/1508 3SM SHRA OVC012
     FM150900 29022G36KT P6SM VCSH SCT007 OVC012
     FM151500 32020G33KT P6SM BKN018
     FM151900 32014G22KT P6SM BKN025=

USA.gov is the U.S. government's official web portal to all federal, state and local government web resources and services.